sensor_id;sensor_type;location;lat;lon;timestamp;P1;durP1;ratioP1;P2;durP2;ratioP2
34035;SDS011;63481;52.588;22.472;2023-01-08T00:00:12;74.23;;;31.77;;
34035;SDS011;63481;52.588;22.472;2023-01-08T00:01:05;67.43;;;30.50;;
34035;SDS011;63481;52.588;22.472;2023-01-08T00:01:57;78.03;;;31.93;;
34035;SDS011;63481;52.588;22.472;2023-01-08T00:02:47;71.45;;;31.50;;
34035;SDS011;63481;52.588;22.472;2023-01-08T00:03:38;70.17;;;30.60;;
34035;SDS011;63481;52.588;22.472;2023-01-08T00:04:32;67.20;;;30.53;;
34035;SDS011;63481;52.588;22.472;2023-01-08T00:05:22;69.50;;;31.73;;
34035;SDS011;63481;52.588;22.472;2023-01-08T00:06:13;70.85;;;31.52;;
34035;SDS011;63481;52.588;22.472;2023-01-08T00:07:05;68.23;;;28.87;;
34035;SDS011;63481;52.588;22.472;2023-01-08T00:08:46;72.87;;;29.37;;
34035;SDS011;63481;52.588;22.472;2023-01-08T00:09:38;72.03;;;30.27;;
34035;SDS011;63481;52.588;22.472;2023-01-08T00:10:28;67.00;;;29.82;;
34035;SDS011;63481;52.588;22.472;2023-01-08T00:11:18;62.23;;;29.75;;
34035;SDS011;63481;52.588;22.472;2023-01-08T00:12:09;72.60;;;29.50;;
34035;SDS011;63481;52.588;22.472;2023-01-08T00:13:49;68.80;;;29.12;;
34035;SDS011;63481;52.588;22.472;2023-01-08T00:14:39;61.53;;;28.47;;
34035;SDS011;63481;52.588;22.472;2023-01-08T00:16:19;67.90;;;29.87;;
34035;SDS011;63481;52.588;22.472;2023-01-08T00:17:10;67.95;;;28.90;;
34035;SDS011;63481;52.588;22.472;2023-01-08T00:18:00;63.87;;;27.30;;
34035;SDS011;63481;52.588;22.472;2023-01-08T00:18:50;63.67;;;29.40;;
34035;SDS011;63481;52.588;22.472;2023-01-08T00:19:41;65.00;;;29.48;;
34035;SDS011;63481;52.588;22.472;2023-01-08T00:20:31;63.63;;;30.53;;
34035;SDS011;63481;52.588;22.472;2023-01-08T00:21:25;66.70;;;30.77;;
34035;SDS011;63481;52.588;22.472;2023-01-08T00:22:15;61.55;;;29.98;;
34035;SDS011;63481;52.588;22.472;2023-01-08T00:23:08;66.87;;;30.85;;
34035;SDS011;63481;52.588;22.472;2023-01-08T00:24:04;62.57;;;28.73;;
34035;SDS011;63481;52.588;22.472;2023-01-08T00:24:55;64.77;;;30.17;;
34035;SDS011;63481;52.588;22.472;2023-01-08T00:25:45;71.53;;;30.50;;
34035;SDS011;63481;52.588;22.472;2023-01-08T00:26:37;63.47;;;28.53;;
34035;SDS011;63481;52.588;22.472;2023-01-08T00:27:27;67.97;;;29.85;;
34035;SDS011;63481;52.588;22.472;2023-01-08T00:28:17;64.85;;;28.98;;
34035;SDS011;63481;52.588;22.472;2023-01-08T00:29:09;64.07;;;28.50;;
34035;SDS011;63481;52.588;22.472;2023-01-08T00:30:51;60.03;;;26.33;;
34035;SDS011;63481;52.588;22.472;2023-01-08T00:31:42;58.15;;;28.10;;
34035;SDS011;63481;52.588;22.472;2023-01-08T00:32:33;67.63;;;28.93;;
34035;SDS011;63481;52.588;22.472;2023-01-08T00:33:24;64.17;;;28.93;;
34035;SDS011;63481;52.588;22.472;2023-01-08T00:34:14;61.85;;;28.62;;
34035;SDS011;63481;52.588;22.472;2023-01-08T00:35:04;65.78;;;29.65;;
34035;SDS011;63481;52.588;22.472;2023-01-08T00:35:55;59.47;;;26.77;;
34035;SDS011;63481;52.588;22.472;2023-01-08T00:37:37;54.83;;;26.03;;
34035;SDS011;63481;52.588;22.472;2023-01-08T00:38:28;55.25;;;25.92;;
34035;SDS011;63481;52.588;22.472;2023-01-08T00:40:08;59.38;;;27.05;;
34035;SDS011;63481;52.588;22.472;2023-01-08T00:40:59;60.77;;;26.10;;
34035;SDS011;63481;52.588;22.472;2023-01-08T00:41:49;57.38;;;27.37;;
34035;SDS011;63481;52.588;22.472;2023-01-08T00:42:39;58.83;;;27.00;;
34035;SDS011;63481;52.588;22.472;2023-01-08T00:43:30;56.23;;;26.50;;
34035;SDS011;63481;52.588;22.472;2023-01-08T00:44:21;59.53;;;27.27;;
34035;SDS011;63481;52.588;22.472;2023-01-08T00:46:06;58.13;;;27.37;;
34035;SDS011;63481;52.588;22.472;2023-01-08T00:46:56;60.80;;;28.77;;
34035;SDS011;63481;52.588;22.472;2023-01-08T00:48:37;56.63;;;25.88;;
34035;SDS011;63481;52.588;22.472;2023-01-08T00:49:27;58.33;;;26.12;;
34035;SDS011;63481;52.588;22.472;2023-01-08T00:51:07;57.58;;;26.35;;
34035;SDS011;63481;52.588;22.472;2023-01-08T00:52:01;52.70;;;25.47;;
34035;SDS011;63481;52.588;22.472;2023-01-08T00:52:51;61.10;;;27.98;;
34035;SDS011;63481;52.588;22.472;2023-01-08T00:53:41;58.68;;;26.52;;
34035;SDS011;63481;52.588;22.472;2023-01-08T00:54:32;57.35;;;26.80;;
34035;SDS011;63481;52.588;22.472;2023-01-08T00:55:22;58.20;;;27.58;;
34035;SDS011;63481;52.588;22.472;2023-01-08T00:56:12;58.15;;;27.02;;
34035;SDS011;63481;52.588;22.472;2023-01-08T00:57:02;55.15;;;26.62;;
34035;SDS011;63481;52.588;22.472;2023-01-08T00:57:52;54.42;;;26.23;;
34035;SDS011;63481;52.588;22.472;2023-01-08T00:58:42;55.70;;;26.23;;
34035;SDS011;63481;52.588;22.472;2023-01-08T00:59:32;48.78;;;25.50;;
34035;SDS011;63481;52.588;22.472;2023-01-08T01:00:23;55.78;;;26.45;;
34035;SDS011;63481;52.588;22.472;2023-01-08T01:01:14;56.10;;;26.20;;
34035;SDS011;63481;52.588;22.472;2023-01-08T01:02:04;54.40;;;25.97;;
34035;SDS011;63481;52.588;22.472;2023-01-08T01:02:54;49.77;;;24.20;;
34035;SDS011;63481;52.588;22.472;2023-01-08T01:03:44;49.88;;;23.92;;
34035;SDS011;63481;52.588;22.472;2023-01-08T01:04:35;52.33;;;24.43;;
34035;SDS011;63481;52.588;22.472;2023-01-08T01:05:26;55.13;;;27.47;;
34035;SDS011;63481;52.588;22.472;2023-01-08T01:06:16;51.45;;;25.62;;
34035;SDS011;63481;52.588;22.472;2023-01-08T01:07:57;54.53;;;23.77;;
34035;SDS011;63481;52.588;22.472;2023-01-08T01:08:47;55.52;;;26.95;;
34035;SDS011;63481;52.588;22.472;2023-01-08T01:09:37;54.15;;;25.02;;
34035;SDS011;63481;52.588;22.472;2023-01-08T01:10:27;52.23;;;25.40;;
34035;SDS011;63481;52.588;22.472;2023-01-08T01:11:19;56.15;;;26.45;;
34035;SDS011;63481;52.588;22.472;2023-01-08T01:12:13;59.17;;;26.97;;
34035;SDS011;63481;52.588;22.472;2023-01-08T01:13:03;55.60;;;26.00;;
34035;SDS011;63481;52.588;22.472;2023-01-08T01:13:54;52.98;;;26.02;;
34035;SDS011;63481;52.588;22.472;2023-01-08T01:14:45;50.87;;;26.97;;
34035;SDS011;63481;52.588;22.472;2023-01-08T01:15:35;52.70;;;26.15;;
34035;SDS011;63481;52.588;22.472;2023-01-08T01:16:25;53.42;;;25.82;;
34035;SDS011;63481;52.588;22.472;2023-01-08T01:17:16;53.63;;;25.87;;
34035;SDS011;63481;52.588;22.472;2023-01-08T01:18:09;52.77;;;25.47;;
34035;SDS011;63481;52.588;22.472;2023-01-08T01:19:50;52.23;;;24.27;;
34035;SDS011;63481;52.588;22.472;2023-01-08T01:20:40;50.48;;;25.00;;
34035;SDS011;63481;52.588;22.472;2023-01-08T01:21:31;51.48;;;24.80;;
34035;SDS011;63481;52.588;22.472;2023-01-08T01:22:21;52.38;;;25.35;;
34035;SDS011;63481;52.588;22.472;2023-01-08T01:23:11;54.60;;;24.57;;
34035;SDS011;63481;52.588;22.472;2023-01-08T01:24:02;52.38;;;25.12;;
34035;SDS011;63481;52.588;22.472;2023-01-08T01:24:54;47.67;;;24.30;;
34035;SDS011;63481;52.588;22.472;2023-01-08T01:25:44;52.88;;;26.20;;
34035;SDS011;63481;52.588;22.472;2023-01-08T01:26:34;50.85;;;25.75;;
34035;SDS011;63481;52.588;22.472;2023-01-08T01:27:25;54.55;;;26.52;;
34035;SDS011;63481;52.588;22.472;2023-01-08T01:29:05;51.55;;;25.23;;
34035;SDS011;63481;52.588;22.472;2023-01-08T01:29:55;49.03;;;23.27;;
34035;SDS011;63481;52.588;22.472;2023-01-08T01:31:37;50.20;;;23.27;;
34035;SDS011;63481;52.588;22.472;2023-01-08T01:32:29;57.90;;;25.10;;
34035;SDS011;63481;52.588;22.472;2023-01-08T01:33:20;51.97;;;25.10;;
34035;SDS011;63481;52.588;22.472;2023-01-08T01:34:10;49.60;;;23.80;;
34035;SDS011;63481;52.588;22.472;2023-01-08T01:35:00;51.42;;;24.32;;
34035;SDS011;63481;52.588;22.472;2023-01-08T01:36:00;51.80;;;25.57;;
34035;SDS011;63481;52.588;22.472;2023-01-08T01:36:49;50.80;;;25.27;;
34035;SDS011;63481;52.588;22.472;2023-01-08T01:37:39;49.08;;;24.63;;
34035;SDS011;63481;52.588;22.472;2023-01-08T01:38:30;48.95;;;23.95;;
34035;SDS011;63481;52.588;22.472;2023-01-08T01:39:20;47.47;;;24.33;;
34035;SDS011;63481;52.588;22.472;2023-01-08T01:40:11;47.37;;;24.03;;
34035;SDS011;63481;52.588;22.472;2023-01-08T01:41:01;47.08;;;24.65;;
34035;SDS011;63481;52.588;22.472;2023-01-08T01:41:51;51.55;;;25.02;;
34035;SDS011;63481;52.588;22.472;2023-01-08T01:42:41;44.55;;;22.52;;
34035;SDS011;63481;52.588;22.472;2023-01-08T01:43:37;50.13;;;23.83;;
34035;SDS011;63481;52.588;22.472;2023-01-08T01:45:25;51.57;;;23.27;;
34035;SDS011;63481;52.588;22.472;2023-01-08T01:47:32;47.50;;;24.53;;
34035;SDS011;63481;52.588;22.472;2023-01-08T01:48:23;44.70;;;23.50;;
34035;SDS011;63481;52.588;22.472;2023-01-08T01:50:13;42.90;;;20.70;;
34035;SDS011;63481;52.588;22.472;2023-01-08T01:51:05;50.73;;;22.30;;
34035;SDS011;63481;52.588;22.472;2023-01-08T01:51:56;39.23;;;21.23;;
34035;SDS011;63481;52.588;22.472;2023-01-08T01:52:54;46.97;;;22.50;;
34035;SDS011;63481;52.588;22.472;2023-01-08T01:53:47;46.17;;;22.87;;
34035;SDS011;63481;52.588;22.472;2023-01-08T01:54:38;42.67;;;22.10;;
34035;SDS011;63481;52.588;22.472;2023-01-08T01:55:28;44.90;;;23.30;;
34035;SDS011;63481;52.588;22.472;2023-01-08T01:56:20;44.67;;;22.20;;
34035;SDS011;63481;52.588;22.472;2023-01-08T01:57:10;43.85;;;21.65;;
34035;SDS011;63481;52.588;22.472;2023-01-08T01:58:05;42.55;;;21.97;;
34035;SDS011;63481;52.588;22.472;2023-01-08T01:59:10;42.50;;;21.67;;
34035;SDS011;63481;52.588;22.472;2023-01-08T02:00:00;47.20;;;23.27;;
34035;SDS011;63481;52.588;22.472;2023-01-08T02:00:56;40.30;;;20.67;;
34035;SDS011;63481;52.588;22.472;2023-01-08T02:01:49;40.50;;;22.07;;
34035;SDS011;63481;52.588;22.472;2023-01-08T02:02:41;40.97;;;20.60;;
34035;SDS011;63481;52.588;22.472;2023-01-08T02:03:32;38.40;;;20.57;;
34035;SDS011;63481;52.588;22.472;2023-01-08T02:04:24;41.00;;;21.93;;
34035;SDS011;63481;52.588;22.472;2023-01-08T02:05:14;38.00;;;20.12;;
34035;SDS011;63481;52.588;22.472;2023-01-08T02:06:15;39.67;;;20.50;;
34035;SDS011;63481;52.588;22.472;2023-01-08T02:07:27;41.07;;;20.43;;
34035;SDS011;63481;52.588;22.472;2023-01-08T02:10:28;40.07;;;20.67;;
34035;SDS011;63481;52.588;22.472;2023-01-08T02:12:18;38.17;;;20.53;;
34035;SDS011;63481;52.588;22.472;2023-01-08T02:13:15;40.73;;;21.20;;
34035;SDS011;63481;52.588;22.472;2023-01-08T02:14:15;38.97;;;19.67;;
34035;SDS011;63481;52.588;22.472;2023-01-08T02:16:17;38.25;;;19.50;;
34035;SDS011;63481;52.588;22.472;2023-01-08T02:17:09;40.10;;;20.90;;
34035;SDS011;63481;52.588;22.472;2023-01-08T02:18:45;37.40;;;19.83;;
34035;SDS011;63481;52.588;22.472;2023-01-08T02:19:04;37.37;;;18.90;;
34035;SDS011;63481;52.588;22.472;2023-01-08T02:20:02;38.03;;;19.57;;
34035;SDS011;63481;52.588;22.472;2023-01-08T02:20:53;37.77;;;18.47;;
34035;SDS011;63481;52.588;22.472;2023-01-08T02:25:08;35.20;;;18.73;;
34035;SDS011;63481;52.588;22.472;2023-01-08T02:27:10;33.87;;;18.40;;
34035;SDS011;63481;52.588;22.472;2023-01-08T02:28:03;41.63;;;19.27;;
34035;SDS011;63481;52.588;22.472;2023-01-08T02:29:29;35.93;;;18.57;;
34035;SDS011;63481;52.588;22.472;2023-01-08T02:29:58;39.40;;;18.80;;
34035;SDS011;63481;52.588;22.472;2023-01-08T02:30:51;38.50;;;19.33;;
34035;SDS011;63481;52.588;22.472;2023-01-08T02:31:44;35.73;;;19.27;;
34035;SDS011;63481;52.588;22.472;2023-01-08T02:33:26;33.33;;;17.70;;
34035;SDS011;63481;52.588;22.472;2023-01-08T02:34:18;35.03;;;18.77;;
34035;SDS011;63481;52.588;22.472;2023-01-08T02:35:08;42.58;;;18.80;;
34035;SDS011;63481;52.588;22.472;2023-01-08T02:37:20;36.55;;;18.05;;
34035;SDS011;63481;52.588;22.472;2023-01-08T02:38:12;35.25;;;17.77;;
34035;SDS011;63481;52.588;22.472;2023-01-08T02:39:22;38.37;;;19.07;;
34035;SDS011;63481;52.588;22.472;2023-01-08T02:40:24;37.77;;;18.27;;
34035;SDS011;63481;52.588;22.472;2023-01-08T02:41:16;36.77;;;18.77;;
34035;SDS011;63481;52.588;22.472;2023-01-08T02:42:08;35.13;;;17.73;;
34035;SDS011;63481;52.588;22.472;2023-01-08T02:43:06;39.17;;;18.67;;
34035;SDS011;63481;52.588;22.472;2023-01-08T02:44:02;33.73;;;18.23;;
34035;SDS011;63481;52.588;22.472;2023-01-08T02:44:58;35.07;;;18.87;;
34035;SDS011;63481;52.588;22.472;2023-01-08T02:45:54;32.27;;;18.33;;
34035;SDS011;63481;52.588;22.472;2023-01-08T02:46:47;31.17;;;17.33;;
34035;SDS011;63481;52.588;22.472;2023-01-08T02:47:41;32.70;;;17.50;;
34035;SDS011;63481;52.588;22.472;2023-01-08T02:48:51;36.40;;;18.67;;
